CheckWX is a tool to help pilots better visualize weather data.  It is not intended as a substitute for an official pre-flight weather briefing.

17:31:11 UTC

CWGZ METAR
Grise Fiord Airport
Canada
Current

22 hours ago

CWGZ 232000Z VRB02KT 7SM FEW076 BKN110 BKN130 M28/M33 A3014 RMK AC1AC4AC2 AFT 12UTC/LAST STFD OBS/NEXT 261200 UTC SLP218
Observed
Mar-23 @ 20:00 UTC
Wind
  • Variable at 2 KTS
Visibility
7 SM
Flight Rules
VFR
Cloud Levels
  • Few at 7,600' AGL
  • Broken at 11,000' AGL
  • Broken at 13,000' AGL
Temperature
-28°C / -18°F
Dewpoint
-33°C / -27°F
Humidity
62%
Altimeter
30.14" Hg
Pressure
1021.8 hPa
Previous

23 hours ago

CWGZ 231900Z VRB02KT 8SM BKN072 BKN083 OVC092 M30/M35 A3012 RMK AC6AC1AS1 PRESRR SLP210
Observed
Mar-23 @ 19:00 UTC
Wind
  • Variable at 2 KTS
Visibility
8 SM
Flight Rules
VFR
Cloud Levels
  • Broken at 7,200' AGL
  • Broken at 8,300' AGL
  • Overcast at 9,200' AGL
Temperature
-30°C / -22°F
Dewpoint
-35°C / -31°F
Humidity
62%
Altimeter
30.12" Hg
Pressure
1021 hPa
Previous

24 hours ago

CWGZ 231800Z VRB02KT 4SM -SN BR FEW043 BKN068 BKN092 M29/M34 A3009 RMK SC2AC3AS1 AS TR -SN INTMT SLP198
Observed
Mar-23 @ 18:00 UTC
Wind
  • Variable at 2 KTS
Visibility
4 SM
Flight Rules
MVFR
Conditions
Light Snow, Mist
Cloud Levels
  • Few at 4,300' AGL
  • Broken at 6,800' AGL
  • Broken at 9,200' AGL
Temperature
-29°C / -20°F
Dewpoint
-34°C / -29°F
Humidity
62%
Altimeter
30.09" Hg
Pressure
1019.8 hPa